Piarco International Airport Port of Spain TT
ICAO: TTPP
IATA: POS
Category: Medium
Scheduled Services:

Elevation: 58 ft
TransAlt. 4100 ft.

Airport Communications:
ACC:123.7
APP:119
ATIS:126.7
GND:121.9
APRON:121.75
RDO:552.6
TWR:118.1

TTPP Zoom In..

If you have problems with the map follow the link
https://www.worldairports.se/pages/airport.php?
ICAO=TTPP

Runways:

(A) RW 10 length 10495 ft width 148 ft
ILS 109.70 / hdg 104

(B) RW 28 length 10495 ft width 148 ft
---- / hdg 284

Location; TTPP
Day. 14 / Time. 08.00 Zulu
* QNH: 1010
* Temperature: 24° c. 75.2°f.
* Wind from: 000° Speed 00 kn.
Dewpoint: 23° c.
Visibility: 10 km or more.
Clouds: Few 1600 ft.
No significant changes expected in the near future.

TTPP 140800Z 00000KT 9999 FEW016 24/23 Q1010 NOSIG


Wind - Calm.

 
 
jpsmedia worldairports.se 2019   terms of use